createdAt,value
2018-12-27T00:02:06.424Z,94.18
2018-12-27T00:04:34.581Z,94.29
2018-12-27T00:07:01.593Z,94.36
2018-12-27T00:09:28.671Z,94.39
2018-12-27T00:11:55.629Z,94.38
2018-12-27T00:14:22.545Z,94.37
2018-12-27T00:16:50.655Z,94.42
2018-12-27T00:19:17.463Z,94.49
2018-12-27T00:21:44.495Z,94.61
2018-12-27T00:24:11.463Z,94.67
2018-12-27T00:26:40.053Z,94.66
2018-12-27T00:29:07.138Z,94.69
2018-12-27T00:31:34.043Z,94.66
2018-12-27T00:34:01.021Z,94.66
2018-12-27T00:36:27.754Z,94.67
2018-12-27T00:38:54.557Z,94.71
2018-12-27T00:41:21.450Z,94.71
2018-12-27T00:43:50.150Z,94.69
2018-12-27T00:46:18.420Z,94.76
2018-12-27T00:48:45.445Z,94.91
2018-12-27T00:51:14.295Z,94.97
2018-12-27T00:53:41.083Z,95.01
2018-12-27T00:56:07.988Z,94.98
2018-12-27T00:58:34.937Z,95.03
2018-12-27T01:01:02.864Z,95.05
2018-12-27T01:03:29.777Z,95.08
2018-12-27T01:05:56.518Z,95.09
2018-12-27T01:08:23.357Z,95.06
2018-12-27T01:10:50.319Z,95.00
2018-12-27T01:13:17.390Z,94.95
2018-12-27T01:15:44.325Z,94.89
2018-12-27T01:18:11.355Z,94.80
2018-12-27T01:24:18.856Z,94.69
2018-12-27T01:26:45.651Z,94.65
2018-12-27T01:29:12.475Z,94.61
2018-12-27T01:31:39.465Z,94.60
2018-12-27T01:34:06.363Z,94.53
2018-12-27T01:36:33.414Z,94.54
2018-12-27T01:39:01.566Z,94.53
2018-12-27T01:41:28.318Z,94.57
2018-12-27T01:43:55.321Z,94.53
2018-12-27T01:46:22.303Z,94.41
2018-12-27T01:48:49.141Z,94.33
2018-12-27T01:51:15.908Z,94.17
2018-12-27T01:53:42.760Z,94.15
2018-12-27T01:56:10.132Z,94.27
2018-12-27T01:58:37.023Z,94.37
2018-12-27T02:01:04.047Z,94.42
2018-12-27T02:03:32.895Z,94.48
2018-12-27T02:05:59.900Z,94.58
2018-12-27T02:08:26.835Z,94.62
2018-12-27T02:10:53.607Z,94.75
2018-12-27T02:13:20.395Z,94.77
2018-12-27T02:15:47.425Z,94.33
2018-12-27T02:18:16.175Z,94.25
2018-12-27T02:20:42.907Z,94.22
2018-12-27T02:23:09.900Z,94.31
2018-12-27T02:25:49.125Z,94.53
2018-12-27T02:28:15.936Z,94.64
2018-12-27T02:30:42.962Z,94.77
2018-12-27T02:33:09.682Z,94.87
2018-12-27T02:35:36.603Z,94.95
2018-12-27T02:38:03.350Z,94.82
2018-12-27T02:40:30.148Z,94.62
2018-12-27T02:42:56.920Z,94.66
2018-12-27T02:45:23.625Z,95.19
2018-12-27T02:47:50.416Z,95.35
2018-12-27T02:50:17.219Z,95.46
2018-12-27T02:52:44.161Z,95.54
2018-12-27T02:55:11.116Z,95.63
2018-12-27T02:57:38.040Z,95.81
2018-12-27T03:00:04.920Z,95.91
2018-12-27T03:02:31.950Z,96.00
2018-12-27T03:04:58.893Z,96.10
2018-12-27T03:07:25.709Z,96.28
2018-12-27T03:09:52.888Z,96.46
2018-12-27T03:12:19.805Z,96.63
2018-12-27T03:14:46.754Z,96.77
2018-12-27T03:17:13.596Z,96.92
2018-12-27T03:19:40.462Z,97.06
2018-12-27T03:22:07.277Z,97.18
2018-12-27T03:24:34.251Z,97.25
2018-12-27T03:27:01.265Z,97.29
2018-12-27T03:29:27.963Z,97.32
2018-12-27T03:31:54.881Z,97.34
2018-12-27T03:34:23.639Z,97.36
2018-12-27T03:36:50.512Z,97.50
2018-12-27T03:39:17.421Z,97.55
2018-12-27T03:41:44.352Z,97.59
2018-12-27T03:44:11.083Z,97.50
2018-12-27T03:46:37.927Z,97.42
2018-12-27T03:49:04.677Z,97.44
2018-12-27T03:51:31.430Z,97.47
2018-12-27T03:53:58.882Z,97.44
2018-12-27T03:56:25.724Z,97.47
2018-12-27T03:58:52.553Z,97.52
2018-12-27T04:01:19.341Z,97.60
2018-12-27T04:03:46.192Z,97.66
2018-12-27T04:06:13.221Z,97.70
2018-12-27T04:08:40.118Z,97.72
2018-12-27T04:11:06.854Z,97.74
2018-12-27T04:13:33.683Z,97.72
2018-12-27T04:16:01.058Z,97.82
2018-12-27T04:18:28.422Z,97.94
2018-12-27T04:20:56.770Z,97.95
2018-12-27T04:23:23.944Z,97.88
2018-12-27T04:25:51.268Z,97.88
2018-12-27T04:28:18.190Z,97.89
2018-12-27T04:30:45.214Z,97.99
2018-12-27T04:33:13.703Z,98.20
2018-12-27T04:35:40.804Z,98.35
2018-12-27T04:38:07.769Z,98.40
2018-12-27T04:40:34.663Z,98.48
2018-12-27T04:43:01.609Z,98.53
2018-12-27T04:45:28.637Z,98.58
2018-12-27T04:47:55.673Z,98.64
2018-12-27T04:50:22.539Z,98.73
2018-12-27T04:52:49.362Z,98.83
2018-12-27T04:55:16.314Z,98.90
2018-12-27T04:57:43.341Z,98.94
2018-12-27T05:00:10.182Z,98.95
2018-12-27T05:02:37.366Z,98.97
2018-12-27T05:05:04.309Z,99.02
2018-12-27T05:07:31.132Z,99.00
2018-12-27T05:09:58.158Z,98.95
2018-12-27T05:12:25.200Z,98.93
2018-12-27T05:14:52.111Z,98.89
2018-12-27T05:17:19.180Z,98.87
2018-12-27T05:19:48.757Z,98.87
2018-12-27T05:22:15.755Z,98.87
2018-12-27T05:24:42.677Z,98.87
2018-12-27T05:27:09.866Z,98.54
2018-12-27T05:29:36.770Z,98.09
2018-12-27T05:32:04.754Z,97.77
2018-12-27T05:34:31.593Z,97.54
2018-12-27T05:37:00.886Z,97.47
2018-12-27T05:39:27.923Z,97.40
2018-12-27T05:41:54.788Z,97.29
2018-12-27T05:44:21.721Z,97.22
2018-12-27T05:46:48.858Z,97.20
2018-12-27T05:49:15.840Z,97.15
2018-12-27T05:51:42.743Z,97.17
2018-12-27T05:54:09.867Z,97.21
2018-12-27T05:56:38.735Z,97.22
2018-12-27T05:59:05.766Z,97.20
2018-12-27T06:01:34.644Z,97.10
2018-12-27T06:04:01.681Z,97.08
2018-12-27T06:06:28.677Z,97.19
2018-12-27T06:08:55.598Z,97.19
2018-12-27T06:11:22.573Z,97.24
2018-12-27T06:13:49.466Z,97.33
2018-12-27T06:16:16.368Z,97.44
2018-12-27T06:18:43.412Z,97.41
2018-12-27T06:21:10.497Z,97.51
2018-12-27T06:23:37.305Z,97.65
2018-12-27T06:26:04.144Z,97.78
2018-12-27T06:28:31.125Z,97.85
2018-12-27T06:30:58.092Z,97.93
2018-12-27T06:33:25.084Z,97.95
2018-12-27T06:35:52.042Z,98.01
2018-12-27T06:38:18.925Z,98.09
2018-12-27T06:40:45.910Z,98.09
2018-12-27T06:43:12.928Z,98.28
2018-12-27T06:45:39.780Z,98.39
2018-12-27T06:48:06.767Z,98.57
2018-12-27T06:50:33.710Z,98.67
2018-12-27T06:53:02.587Z,98.76
2018-12-27T06:55:29.585Z,98.80
2018-12-27T06:57:56.749Z,98.83
2018-12-27T07:00:24.998Z,98.88
2018-12-27T07:02:52.019Z,98.90
2018-12-27T07:05:19.009Z,98.72
2018-12-27T07:07:46.169Z,98.55
2018-12-27T07:10:13.284Z,98.57
2018-12-27T07:12:40.323Z,98.57
2018-12-27T07:15:07.398Z,98.68
2018-12-27T07:17:34.389Z,98.72
2018-12-27T07:20:01.517Z,98.74
2018-12-27T07:22:28.517Z,98.85
2018-12-27T07:24:55.560Z,98.82
2018-12-27T07:27:22.497Z,98.89
2018-12-27T07:29:49.641Z,99.08
2018-12-27T07:32:22.518Z,99.23
2018-12-27T07:34:56.283Z,99.46
2018-12-27T07:37:18.475Z,99.89
2018-12-27T07:39:45.492Z,100.00
2018-12-27T07:42:12.535Z,100.00
2018-12-27T07:44:39.636Z,100.00
2018-12-27T07:47:07.209Z,100.00
2018-12-27T07:49:34.310Z,100.00
2018-12-27T07:52:01.279Z,100.00
2018-12-27T07:54:28.405Z,100.00
2018-12-27T07:56:57.490Z,100.00
2018-12-27T07:59:24.435Z,100.00
2018-12-27T08:01:51.425Z,100.00
2018-12-27T08:04:18.517Z,100.00
2018-12-27T08:06:45.555Z,100.00
2018-12-27T08:09:12.456Z,100.00
2018-12-27T08:11:39.534Z,100.00
2018-12-27T08:14:06.649Z,100.00
2018-12-27T08:16:33.533Z,100.00
2018-12-27T08:19:00.925Z,100.00
2018-12-27T08:21:29.850Z,100.00
2018-12-27T08:23:56.976Z,99.84
2018-12-27T08:26:23.939Z,99.65
2018-12-27T08:28:52.164Z,99.59
2018-12-27T08:31:19.308Z,99.41
2018-12-27T08:33:46.377Z,99.02
2018-12-27T08:36:13.400Z,97.95
2018-12-27T08:38:40.467Z,97.01
2018-12-27T08:41:07.368Z,96.76
2018-12-27T08:43:34.445Z,96.69
2018-12-27T08:46:01.796Z,96.66
2018-12-27T08:48:30.072Z,96.75
2018-12-27T08:50:57.175Z,96.92
2018-12-27T08:53:24.259Z,96.64
2018-12-27T08:55:51.412Z,96.70
2018-12-27T08:58:18.591Z,96.72
2018-12-27T09:00:45.715Z,96.45
2018-12-27T09:03:12.771Z,95.79
2018-12-27T09:05:39.739Z,94.69
2018-12-27T09:08:06.592Z,93.64
2018-12-27T09:10:33.557Z,92.75
2018-12-27T09:13:00.471Z,91.61
2018-12-27T09:15:27.400Z,91.01
2018-12-27T09:17:54.339Z,88.76
2018-12-27T09:20:21.277Z,87.78
2018-12-27T09:22:48.851Z,86.38
2018-12-27T09:25:16.021Z,85.51
2018-12-27T09:27:44.807Z,84.02
2018-12-27T09:30:11.911Z,82.78
2018-12-27T09:32:38.990Z,83.33
2018-12-27T09:35:06.074Z,83.15
2018-12-27T09:37:33.553Z,82.35
2018-12-27T09:40:00.961Z,81.04
2018-12-27T09:42:27.957Z,78.90
2018-12-27T09:44:55.007Z,77.04
2018-12-27T09:47:21.986Z,77.43
2018-12-27T09:49:49.058Z,77.88
2018-12-27T09:52:16.105Z,76.22
2018-12-27T09:54:43.060Z,76.31
2018-12-27T09:57:11.742Z,75.99
2018-12-27T09:59:38.769Z,75.99
2018-12-27T10:02:05.787Z,75.99
2018-12-27T10:04:32.848Z,76.59
2018-12-27T10:06:59.929Z,75.97
2018-12-27T10:09:27.027Z,75.99
2018-12-27T10:11:54.092Z,78.14
2018-12-27T10:14:21.340Z,79.38
2018-12-27T10:16:59.999Z,79.87
2018-12-27T10:19:27.034Z,80.02
2018-12-27T10:21:54.161Z,79.78
2018-12-27T10:24:21.159Z,79.51
2018-12-27T10:26:48.210Z,79.16
2018-12-27T10:29:17.081Z,78.82
2018-12-27T10:31:44.179Z,80.13
2018-12-27T10:34:11.239Z,79.22
2018-12-27T10:36:38.326Z,78.31
2018-12-27T10:39:09.923Z,77.15
2018-12-27T10:41:37.043Z,77.43
2018-12-27T10:44:04.144Z,78.09
2018-12-27T10:46:33.072Z,78.21
2018-12-27T10:49:00.981Z,77.31
2018-12-27T10:51:28.061Z,76.98
2018-12-27T10:53:55.286Z,77.04
2018-12-27T10:56:23.527Z,76.75
2018-12-27T10:58:50.523Z,76.03
2018-12-27T11:01:17.544Z,75.87
2018-12-27T11:03:44.638Z,75.25
2018-12-27T11:06:11.646Z,74.90
2018-12-27T11:08:38.724Z,74.18
2018-12-27T11:11:06.037Z,75.30
2018-12-27T11:13:34.195Z,75.77
2018-12-27T11:16:01.239Z,75.60
2018-12-27T11:18:28.538Z,76.53
2018-12-27T11:20:55.656Z,75.61
2018-12-27T11:23:22.500Z,75.26
2018-12-27T11:25:49.326Z,75.76
2018-12-27T11:28:16.269Z,76.41
2018-12-27T11:30:43.097Z,76.70
2018-12-27T11:33:10.321Z,76.12
2018-12-27T11:35:37.371Z,76.83
2018-12-27T11:38:04.207Z,76.12
2018-12-27T11:40:46.049Z,76.53
2018-12-27T11:43:13.089Z,76.55
2018-12-27T11:45:40.187Z,76.69
2018-12-27T11:48:08.678Z,76.75
2018-12-27T11:50:35.737Z,76.98
2018-12-27T11:53:02.698Z,76.82
2018-12-27T11:55:29.765Z,76.64
2018-12-27T11:57:57.015Z,76.94
2018-12-27T12:00:25.059Z,77.05
2018-12-27T12:02:52.209Z,77.31
2018-12-27T12:05:19.471Z,76.97
2018-12-27T12:07:46.516Z,77.28
2018-12-27T12:10:13.564Z,77.66
2018-12-27T12:12:40.738Z,77.58
2018-12-27T12:15:08.055Z,77.54
2018-12-27T12:17:35.004Z,77.33
2018-12-27T12:20:02.039Z,77.24
2018-12-27T12:22:31.074Z,77.15
2018-12-27T12:24:58.114Z,77.13
2018-12-27T12:27:25.178Z,77.06
2018-12-27T12:29:52.278Z,77.29
2018-12-27T12:32:19.301Z,76.65
2018-12-27T12:34:46.288Z,76.43
2018-12-27T12:37:14.170Z,76.47
2018-12-27T12:39:41.618Z,76.23
2018-12-27T12:42:08.572Z,75.88
2018-12-27T12:44:35.586Z,76.00
2018-12-27T12:47:02.726Z,76.09
2018-12-27T12:49:29.748Z,75.36
2018-12-27T12:51:56.703Z,75.30
2018-12-27T12:54:23.735Z,74.71
2018-12-27T12:56:50.741Z,74.73
2018-12-27T12:59:17.720Z,74.70
2018-12-27T13:01:44.759Z,75.11
2018-12-27T13:04:11.919Z,74.37
2018-12-27T13:06:38.994Z,74.16
2018-12-27T13:09:07.081Z,73.45
2018-12-27T13:11:34.111Z,73.00
2018-12-27T13:14:01.013Z,72.80
2018-12-27T13:16:28.155Z,72.55
2018-12-27T13:18:55.143Z,72.16
2018-12-27T13:21:22.217Z,72.18
2018-12-27T13:23:49.278Z,72.12
2018-12-27T13:26:16.174Z,72.16
2018-12-27T13:28:43.195Z,72.05
2018-12-27T13:31:10.270Z,72.28
2018-12-27T13:33:37.288Z,72.39
2018-12-27T13:36:04.868Z,72.39
2018-12-27T13:38:31.848Z,72.31
2018-12-27T13:40:58.958Z,72.76
2018-12-27T13:43:27.204Z,73.04
2018-12-27T13:45:54.300Z,73.15
2018-12-27T13:48:21.211Z,73.10
2018-12-27T13:50:48.485Z,73.49
2018-12-27T13:53:16.927Z,73.88
2018-12-27T13:55:49.079Z,74.01
2018-12-27T13:58:21.068Z,73.71
2018-12-27T14:00:53.226Z,74.16
2018-12-27T14:03:33.067Z,74.80
2018-12-27T14:06:05.075Z,74.99
2018-12-27T14:08:38.053Z,74.77
2018-12-27T14:11:06.606Z,74.98
2018-12-27T14:13:41.908Z,75.50
2018-12-27T14:16:10.620Z,75.68
2018-12-27T14:18:37.623Z,75.78
2018-12-27T14:21:04.933Z,76.26
2018-12-27T14:23:36.586Z,76.51
2018-12-27T14:26:08.008Z,76.88
2018-12-27T14:28:36.386Z,77.28
2018-12-27T14:31:09.151Z,77.58
2018-12-27T14:33:54.144Z,77.90
2018-12-27T14:36:21.167Z,78.29
2018-12-27T14:38:48.289Z,78.68
2018-12-27T14:41:17.109Z,78.74
2018-12-27T14:43:44.062Z,79.11
2018-12-27T14:46:11.012Z,79.37
2018-12-27T14:48:44.355Z,79.58
2018-12-27T14:51:16.465Z,79.66
2018-12-27T14:53:45.684Z,79.82
2018-12-27T14:56:13.918Z,80.07
2018-12-27T14:58:45.687Z,80.29
2018-12-27T15:01:12.882Z,80.47
2018-12-27T15:03:40.384Z,80.90
2018-12-27T15:06:47.969Z,81.19
2018-12-27T15:09:15.599Z,81.46
2018-12-27T15:11:46.943Z,81.75
2018-12-27T15:14:14.494Z,82.05
2018-12-27T15:16:48.459Z,82.17
2018-12-27T15:19:28.076Z,82.53
2018-12-27T15:22:01.331Z,82.86
2018-12-27T15:24:35.231Z,83.21
2018-12-27T15:27:06.367Z,83.56
2018-12-27T15:29:33.379Z,83.83
2018-12-27T15:32:00.420Z,83.99
2018-12-27T15:34:27.351Z,84.19
2018-12-27T15:36:54.668Z,84.36
2018-12-27T15:39:23.624Z,84.70
2018-12-27T15:41:50.599Z,84.92
2018-12-27T15:44:17.476Z,85.38
2018-12-27T15:46:44.436Z,85.62
2018-12-27T15:49:11.360Z,85.61
2018-12-27T15:51:38.313Z,85.91
2018-12-27T15:54:05.294Z,86.11
2018-12-27T15:56:32.300Z,86.18
2018-12-27T15:58:59.257Z,86.21
2018-12-27T16:01:26.323Z,86.17
2018-12-27T16:04:05.228Z,86.25
2018-12-27T16:06:34.425Z,86.32
2018-12-27T16:09:04.672Z,86.59
2018-12-27T16:12:26.220Z,86.73
2018-12-27T16:14:53.029Z,86.78
2018-12-27T16:17:20.079Z,87.02
2018-12-27T16:19:48.393Z,87.23
2018-12-27T16:22:17.620Z,87.35
2018-12-27T16:24:51.158Z,87.45
2018-12-27T16:27:37.688Z,87.66
2018-12-27T16:30:07.793Z,87.81
2018-12-27T16:32:35.324Z,88.20
2018-12-27T16:35:04.461Z,88.26
2018-12-27T16:37:33.247Z,88.65
2018-12-27T16:40:01.604Z,89.08
2018-12-27T16:42:30.067Z,89.39
2018-12-27T16:45:14.205Z,89.32
2018-12-27T16:47:41.442Z,89.32
2018-12-27T16:50:09.419Z,89.38
2018-12-27T16:53:10.993Z,89.36
2018-12-27T16:55:44.042Z,89.33
2018-12-27T16:58:15.236Z,89.39
2018-12-27T17:00:44.995Z,89.08
2018-12-27T17:03:14.730Z,88.89
2018-12-27T17:05:44.477Z,88.95
2018-12-27T17:08:12.231Z,88.88
2018-12-27T17:10:39.240Z,88.79
2018-12-27T17:13:06.313Z,88.84
2018-12-27T17:15:35.614Z,88.95
2018-12-27T17:18:02.579Z,88.89
2018-12-27T17:20:29.702Z,88.59
2018-12-27T17:23:04.534Z,88.40
2018-12-27T17:26:16.030Z,88.45
2018-12-27T17:28:43.207Z,88.48
2018-12-27T17:31:10.146Z,88.64
2018-12-27T17:33:37.166Z,88.95
2018-12-27T17:36:03.986Z,89.20
2018-12-27T17:38:30.907Z,89.46
2018-12-27T17:40:57.827Z,89.62
2018-12-27T17:43:24.834Z,90.08
2018-12-27T17:45:51.660Z,90.15
2018-12-27T17:48:18.875Z,89.90
2018-12-27T17:50:47.119Z,89.91
2018-12-27T17:53:14.129Z,90.14
2018-12-27T17:55:41.245Z,90.39
2018-12-27T17:58:08.195Z,90.50
2018-12-27T18:00:35.255Z,90.74
2018-12-27T18:03:02.933Z,91.04
2018-12-27T18:05:30.188Z,91.15
2018-12-27T18:07:57.286Z,91.03
2018-12-27T18:10:26.608Z,90.98
2018-12-27T18:12:53.575Z,91.11
2018-12-27T18:15:20.677Z,91.29
2018-12-27T18:17:47.618Z,91.27
2018-12-27T18:20:15.246Z,91.27
2018-12-27T18:22:42.265Z,91.37
2018-12-27T18:25:09.287Z,91.35
2018-12-27T18:27:36.287Z,91.41
2018-12-27T18:30:03.697Z,91.49
2018-12-27T18:32:30.584Z,91.01
2018-12-27T18:34:57.415Z,91.22
2018-12-27T18:37:24.298Z,91.51
2018-12-27T18:39:51.295Z,91.80
2018-12-27T18:42:18.109Z,92.04
2018-12-27T18:44:45.079Z,92.22
2018-12-27T18:47:19.428Z,92.28
2018-12-27T18:49:46.542Z,92.40
2018-12-27T18:52:13.363Z,92.34
2018-12-27T18:54:40.375Z,92.21
2018-12-27T18:57:07.429Z,92.25
2018-12-27T18:59:34.243Z,92.30
2018-12-27T19:02:01.262Z,92.33
2018-12-27T19:04:28.193Z,92.21
2018-12-27T19:06:55.215Z,92.07
2018-12-27T19:09:22.227Z,92.01
2018-12-27T19:12:25.849Z,92.24
2018-12-27T19:14:57.161Z,92.60
2018-12-27T19:17:29.368Z,92.81
2018-12-27T19:19:56.417Z,92.85
2018-12-27T19:22:34.484Z,92.77
2018-12-27T19:25:01.413Z,92.58
2018-12-27T19:27:28.395Z,92.40
2018-12-27T19:29:55.389Z,92.31
2018-12-27T19:32:22.415Z,92.25
2018-12-27T19:34:49.363Z,92.19
2018-12-27T19:37:16.330Z,92.31
2018-12-27T19:39:43.258Z,92.30
2018-12-27T19:42:10.179Z,92.36
2018-12-27T19:44:37.203Z,92.22
2018-12-27T19:47:04.154Z,91.99
2018-12-27T19:49:31.305Z,91.67
2018-12-27T19:51:58.324Z,91.41
2018-12-27T19:54:31.755Z,91.30
2018-12-27T19:56:54.188Z,91.11
2018-12-27T19:59:21.148Z,90.74
2018-12-27T20:01:48.123Z,90.54
2018-12-27T20:04:16.866Z,90.37
2018-12-27T20:06:43.817Z,90.18
2018-12-27T20:09:12.178Z,90.04
2018-12-27T20:11:39.227Z,89.93
2018-12-27T20:14:06.363Z,89.98
2018-12-27T20:16:33.448Z,90.03
2018-12-27T20:19:00.812Z,90.18
2018-12-27T20:21:27.758Z,90.08
2018-12-27T20:23:54.771Z,90.03
2018-12-27T20:26:21.772Z,90.24
2018-12-27T20:28:48.668Z,90.40
2018-12-27T20:31:15.542Z,90.46
2018-12-27T20:33:42.512Z,90.78
2018-12-27T20:36:09.531Z,90.77
2018-12-27T20:38:36.807Z,90.67
2018-12-27T20:41:03.622Z,90.61
2018-12-27T20:43:30.611Z,90.57
2018-12-27T20:45:57.563Z,90.42
2018-12-27T20:48:24.636Z,90.19
2018-12-27T20:50:51.621Z,90.02
2018-12-27T20:53:20.700Z,89.94
2018-12-27T20:55:50.004Z,89.80
2018-12-27T20:58:19.230Z,89.41
2018-12-27T21:00:50.064Z,88.77
2018-12-27T21:03:23.837Z,88.33
2018-12-27T21:05:53.193Z,87.88
2018-12-27T21:08:22.764Z,87.88
2018-12-27T21:10:51.817Z,87.69
2018-12-27T21:13:21.068Z,87.81
2018-12-27T21:15:50.253Z,87.93
2018-12-27T21:18:19.521Z,88.07
2018-12-27T21:20:48.919Z,88.17
2018-12-27T21:23:18.154Z,88.20
2018-12-27T21:25:47.273Z,88.47
2018-12-27T21:28:16.346Z,89.03
2018-12-27T21:30:45.593Z,89.33
2018-12-27T21:33:15.084Z,89.71
2018-12-27T21:35:44.340Z,90.06
2018-12-27T21:38:13.671Z,90.26
2018-12-27T21:40:42.743Z,90.34
2018-12-27T21:43:11.881Z,90.41
2018-12-27T21:45:40.974Z,90.54
2018-12-27T21:48:10.124Z,90.58
2018-12-27T21:50:39.221Z,90.61
2018-12-27T21:53:08.322Z,90.80
2018-12-27T21:55:37.424Z,90.84
2018-12-27T21:58:06.536Z,91.06
2018-12-27T22:00:35.763Z,91.30
2018-12-27T22:03:05.004Z,91.22
2018-12-27T22:05:34.039Z,91.02
2018-12-27T22:08:04.515Z,90.54
2018-12-27T22:10:33.680Z,90.46
2018-12-27T22:13:02.783Z,90.21
2018-12-27T22:15:31.871Z,90.10
2018-12-27T22:18:01.256Z,90.12
2018-12-27T22:20:30.338Z,90.19
2018-12-27T22:22:59.534Z,90.04
2018-12-27T22:25:28.720Z,89.98
2018-12-27T22:27:58.154Z,90.00
2018-12-27T22:30:27.593Z,89.67
2018-12-27T22:32:56.776Z,89.73
2018-12-27T22:35:25.977Z,89.86
2018-12-27T22:37:55.102Z,90.22
2018-12-27T22:40:24.051Z,90.61
2018-12-27T22:42:53.190Z,90.57
2018-12-27T22:45:22.355Z,90.63
2018-12-27T22:47:51.492Z,90.88
2018-12-27T22:50:20.649Z,91.16
2018-12-27T22:52:49.775Z,91.62
2018-12-27T22:55:19.152Z,91.69
2018-12-27T22:57:49.105Z,91.76
2018-12-27T23:00:27.601Z,91.58
2018-12-27T23:02:56.644Z,91.51
2018-12-27T23:05:26.023Z,91.46
2018-12-27T23:07:55.184Z,91.41
2018-12-27T23:10:24.301Z,91.44
2018-12-27T23:12:53.336Z,91.34
2018-12-27T23:15:22.412Z,91.42
2018-12-27T23:17:52.888Z,91.60
2018-12-27T23:20:21.996Z,91.64
2018-12-27T23:22:51.060Z,91.67
2018-12-27T23:25:20.124Z,91.80
2018-12-27T23:27:49.155Z,91.65
2018-12-27T23:30:18.315Z,91.41
2018-12-27T23:32:47.387Z,91.60
2018-12-27T23:35:16.518Z,91.91
2018-12-27T23:37:45.621Z,92.26
2018-12-27T23:40:14.746Z,92.63
2018-12-27T23:42:43.904Z,92.98
2018-12-27T23:45:13.035Z,93.36
2018-12-27T23:47:42.063Z,93.74
2018-12-27T23:50:11.160Z,93.86
2018-12-27T23:52:40.131Z,94.04
2018-12-27T23:55:09.151Z,94.12
2018-12-27T23:57:38.281Z,94.21
